Sunny Isles, Florida
Current Conditions -  °F | °C
As of 6:53 AM on Saturday 25 Oct 2014 (Local Time) from KHWO Reporting Station
Clear Clear  
Wind Chill: 66°   Ceiling: Unl
Heat Index: 66°   Visibility: 10mi
Dew Point: 63°   Wind: 8mph
Humidity: 90%   Direction: 330°NNW
Pressure: 29.89"   Gusts: NA
Location:  25.9339°N, 80.1467°W
Report Text: KHWO 251053Z 33007KT 10SM CLR 19/17 A2989 RMK AO2 SLP122 T01890172
Loading
Personal Weather Stations






























Interactive Weather Map
Tropical Storm Tracking
New forecast layout! Learn more

10-Day Weather Forecast

Advertisements
Track Severe Weather on mobile